Time;durP1;ratioP1;P1;durP2;ratioP2;P2;SDS_P1;SDS_P2;PMS_P1;PMS_P2;Temp;Humidity;BMP_temperature;BMP_pressure;BME280_temperature;BME280_humidity;BME280_pressure;Samples;Min_cycle;Max_cycle;Signal;HPM_P1;HPM_P2
2023/11/14 00:00:31;;;;;;;4.20;1.95;;;22.70;59.60;;;;;;6049634;23;91922;-86
2023/11/14 00:02:56;;;;;;;2.92;1.40;;;22.70;59.50;;;;;;6050102;23;92813;-86
2023/11/14 00:05:22;;;;;;;5.93;2.03;;;22.70;59.50;;;;;;6050411;23;93322;-86
2023/11/14 00:07:47;;;;;;;6.65;1.98;;;22.70;59.60;;;;;;6050838;23;93473;-84
2023/11/14 00:10:13;;;;;;;2.92;1.55;;;22.60;59.60;;;;;;6049496;23;93074;-86
2023/11/14 00:12:39;;;;;;;2.35;1.42;;;22.60;59.70;;;;;;6050661;23;93610;-85
2023/11/14 00:15:08;;;;;;;3.40;1.80;;;22.60;59.70;;;;;;6048846;23;94300;-85
2023/11/14 00:17:36;;;;;;;4.50;1.88;;;22.60;59.60;;;;;;6051975;23;92474;-85
2023/11/14 00:20:02;;;;;;;3.78;1.85;;;22.60;59.70;;;;;;6050701;23;92205;-86
2023/11/14 00:22:29;;;;;;;4.90;1.92;;;22.60;59.80;;;;;;6049319;23;95824;-85
2023/11/14 00:24:54;;;;;;;3.22;1.30;;;22.60;59.80;;;;;;6050762;23;93155;-86
2023/11/14 00:27:20;;;;;;;4.90;2.17;;;22.50;59.70;;;;;;6049879;23;93073;-85
2023/11/14 00:29:46;;;;;;;3.45;1.67;;;22.50;60.50;;;;;;6049044;23;92267;-84
2023/11/14 00:32:11;;;;;;;4.50;1.75;;;22.50;59.70;;;;;;6049499;23;96292;-84
2023/11/14 00:34:37;;;;;;;6.20;2.00;;;22.50;59.70;;;;;;6052178;23;93080;-85
2023/11/14 00:37:03;;;;;;;4.78;2.10;;;22.50;59.70;;;;;;6050563;23;93098;-86
2023/11/14 00:39:29;;;;;;;5.95;2.00;;;22.40;59.70;;;;;;6048577;23;92716;-86
2023/11/14 00:41:54;;;;;;;4.28;1.80;;;22.40;59.50;;;;;;6051444;23;93247;-85
2023/11/14 00:44:21;;;;;;;4.65;2.13;;;22.40;59.80;;;;;;6040346;23;94799;-84
2023/11/14 00:46:48;;;;;;;3.92;2.08;;;22.40;59.80;;;;;;6067111;23;92821;-86
2023/11/14 00:49:14;;;;;;;4.63;1.83;;;22.40;59.60;;;;;;6054653;23;92017;-85
2023/11/14 00:51:39;;;;;;;4.25;1.85;;;22.40;59.70;;;;;;6051110;23;93043;-86
2023/11/14 00:54:05;;;;;;;4.40;2.05;;;22.40;59.70;;;;;;6050586;23;95684;-86
2023/11/14 00:56:31;;;;;;;3.42;1.48;;;22.40;59.70;;;;;;6051128;23;93368;-84
2023/11/14 00:58:57;;;;;;;3.10;1.55;;;22.30;59.80;;;;;;6052112;23;92678;-85
2023/11/14 01:01:23;;;;;;;3.45;1.60;;;22.30;59.70;;;;;;6050563;23;95358;-86
2023/11/14 01:03:48;;;;;;;4.15;1.85;;;22.30;59.80;;;;;;6050301;23;96268;-85
2023/11/14 01:06:17;;;;;;;4.63;1.90;;;22.30;59.70;;;;;;6052363;23;92442;-85
2023/11/14 01:08:43;;;;;;;3.67;1.40;;;22.30;59.70;;;;;;6052673;23;92700;-85
2023/11/14 01:11:09;;;;;;;3.80;1.63;;;22.30;60.50;;;;;;6052021;23;92791;-85
2023/11/14 01:13:36;;;;;;;6.43;2.35;;;22.30;59.70;;;;;;6052355;23;95242;-86
2023/11/14 01:16:02;;;;;;;2.63;1.63;;;22.30;59.60;;;;;;6050067;23;92562;-86
2023/11/14 01:18:28;;;;;;;4.63;1.77;;;22.30;59.70;;;;;;6053070;23;92750;-85
2023/11/14 01:20:53;;;;;;;2.63;1.60;;;22.20;59.70;;;;;;6049568;23;94438;-85
2023/11/14 01:23:19;;;;;;;3.05;1.67;;;22.20;59.60;;;;;;6050188;23;96065;-85
2023/11/14 01:25:45;;;;;;;3.25;1.60;;;22.20;59.70;;;;;;6049999;23;93003;-85
2023/11/14 01:28:10;;;;;;;3.67;1.35;;;22.20;59.70;;;;;;6050152;23;92660;-86
2023/11/14 01:30:36;;;;;;;3.10;1.83;;;22.20;59.70;;;;;;6050137;23;96090;-86
2023/11/14 01:33:01;;;;;;;5.85;1.92;;;22.20;59.70;;;;;;6052189;23;92268;-85
2023/11/14 01:35:27;;;;;;;3.65;1.38;;;22.10;59.60;;;;;;6050595;23;92398;-85
2023/11/14 01:37:53;;;;;;;2.95;1.50;;;22.10;59.70;;;;;;6051912;23;92114;-84
2023/11/14 01:40:18;;;;;;;2.65;1.55;;;22.10;59.60;;;;;;6052724;23;92908;-86
2023/11/14 01:42:44;;;;;;;3.75;2.00;;;22.10;59.70;;;;;;6051059;23;92403;-85
2023/11/14 01:45:10;;;;;;;3.90;1.70;;;22.10;59.70;;;;;;6049844;23;93673;-85
2023/11/14 01:47:35;;;;;;;3.25;1.80;;;22.10;59.70;;;;;;6051357;23;92826;-85
2023/11/14 01:50:02;;;;;;;4.75;1.98;;;22.10;59.70;;;;;;6049448;23;95623;-84
2023/11/14 01:52:28;;;;;;;3.58;1.75;;;22.10;59.80;;;;;;6050530;23;94301;-84
2023/11/14 01:54:55;;;;;;;3.97;1.73;;;22.10;59.70;;;;;;6062333;23;92461;-85
2023/11/14 01:57:21;;;;;;;2.35;1.15;;;22.00;59.60;;;;;;6052400;23;93057;-85
2023/11/14 01:59:51;;;;;;;4.00;1.70;;;22.00;59.70;;;;;;6050275;23;94815;-85
2023/11/14 02:02:17;;;;;;;2.58;1.45;;;22.00;59.60;;;;;;6049780;23;95344;-86
2023/11/14 02:04:46;;;;;;;3.88;1.73;;;22.00;59.10;;;;;;6053296;23;92636;-85
2023/11/14 02:07:12;;;;;;;3.83;1.77;;;22.00;59.20;;;;;;6051042;23;92091;-85
2023/11/14 02:09:38;;;;;;;3.20;1.80;;;22.00;59.20;;;;;;6051496;23;94197;-85
2023/11/14 02:12:04;;;;;;;4.25;1.70;;;22.00;59.10;;;;;;6050987;23;93086;-86
2023/11/14 02:14:30;;;;;;;4.00;2.05;;;22.00;59.10;;;;;;6049017;23;92238;-86
2023/11/14 02:16:55;;;;;;;2.42;1.35;;;22.00;59.10;;;;;;6049227;23;92781;-84
2023/11/14 02:19:24;;;;;;;5.00;1.85;;;22.00;59.10;;;;;;6052638;23;93235;-86
2023/11/14 02:21:50;;;;;;;5.23;1.93;;;21.90;59.00;;;;;;6049622;23;94965;-86
2023/11/14 02:24:20;;;;;;;3.13;1.35;;;21.90;59.00;;;;;;6052382;23;92273;-85
2023/11/14 02:26:48;;;;;;;2.65;1.50;;;21.90;58.90;;;;;;6052678;23;92202;-84
2023/11/14 02:29:21;;;;;;;5.07;2.13;;;21.90;59.00;;;;;;6050409;23;92985;-85
2023/11/14 02:32:07;;;;;;;3.50;1.77;;;21.90;59.10;;;;;;6050345;23;94039;-85
2023/11/14 02:34:34;;;;;;;5.22;1.88;;;21.90;59.10;;;;;;6054097;23;93463;-86
2023/11/14 02:36:59;;;;;;;3.55;2.00;;;21.90;59.10;;;;;;6052870;23;92527;-85
2023/11/14 02:39:25;;;;;;;3.40;1.80;;;21.90;59.00;;;;;;6055545;23;92994;-85
2023/11/14 02:41:51;;;;;;;3.55;1.58;;;21.90;59.00;;;;;;6054398;23;95305;-84
2023/11/14 02:44:16;;;;;;;4.97;1.70;;;21.90;59.00;;;;;;6055509;23;92391;-85
2023/11/14 02:46:42;;;;;;;4.13;1.88;;;21.90;59.10;;;;;;6055563;23;92327;-85
2023/11/14 02:49:17;;;;;;;4.03;1.92;;;21.90;58.90;;;;;;6060082;23;95918;-85
2023/11/14 02:51:42;;;;;;;4.07;1.65;;;21.90;59.00;;;;;;6060690;23;92367;-86
2023/11/14 02:54:08;;;;;;;4.43;1.77;;;21.90;59.10;;;;;;6062813;23;92584;-85
2023/11/14 02:56:33;;;;;;;4.00;1.50;;;21.90;59.10;;;;;;6072585;23;94884;-85
2023/11/14 02:59:02;;;;;;;3.90;2.17;;;21.80;59.00;;;;;;6079502;23;95445;-86
2023/11/14 03:01:28;;;;;;;5.35;1.95;;;21.80;58.90;;;;;;6083853;23;92259;-86
2023/11/14 03:03:53;;;;;;;4.68;1.70;;;21.80;58.90;;;;;;6083295;23;91684;-85
2023/11/14 03:06:19;;;;;;;4.65;1.38;;;21.80;59.10;;;;;;6081150;23;91600;-85
2023/11/14 03:08:45;;;;;;;2.95;1.50;;;21.80;59.00;;;;;;6064523;23;94612;-85
2023/11/14 03:11:12;;;;;;;4.13;1.50;;;21.80;59.00;;;;;;6066074;23;93650;-86
2023/11/14 03:13:38;;;;;;;5.82;1.67;;;21.70;58.90;;;;;;6067506;23;91845;-85
2023/11/14 03:16:04;;;;;;;4.05;1.83;;;21.80;58.90;;;;;;6060079;23;91715;-85
2023/11/14 03:18:29;;;;;;;4.63;1.83;;;21.80;59.00;;;;;;6054120;23;92924;-85
2023/11/14 03:20:55;;;;;;;3.55;1.85;;;21.80;58.90;;;;;;6049772;23;95344;-86
2023/11/14 03:23:21;;;;;;;3.80;1.63;;;21.70;58.80;;;;;;6052040;23;94152;-86
2023/11/14 03:25:46;;;;;;;4.65;1.40;;;21.70;58.90;;;;;;6048682;23;92484;-84
2023/11/14 03:28:12;;;;;;;3.30;1.42;;;21.70;58.80;;;;;;6052216;23;92760;-85
2023/11/14 03:30:37;;;;;;;5.13;2.00;;;21.70;58.80;;;;;;6050635;23;92485;-83
2023/11/14 03:33:03;;;;;;;3.58;1.75;;;21.70;58.60;;;;;;6053776;23;93086;-86
2023/11/14 03:35:29;;;;;;;7.20;1.90;;;21.70;58.90;;;;;;6054324;23;92161;-85
2023/11/14 03:37:55;;;;;;;3.90;1.80;;;21.70;58.70;;;;;;6054081;23;92537;-86
2023/11/14 03:40:21;;;;;;;2.25;1.20;;;21.60;58.60;;;;;;6052858;23;94054;-85
2023/11/14 03:42:47;;;;;;;5.53;2.05;;;21.70;58.60;;;;;;6052254;23;92498;-84
2023/11/14 03:45:12;;;;;;;3.60;1.80;;;21.70;58.70;;;;;;6051181;23;92714;-85
2023/11/14 03:47:38;;;;;;;3.22;1.75;;;21.70;58.60;;;;;;6049863;23;96919;-84
2023/11/14 03:50:07;;;;;;;3.70;1.48;;;21.60;58.70;;;;;;6051982;23;94441;-84
2023/11/14 03:52:33;;;;;;;;;;;21.60;58.60;;;;;;6053366;23;92304;-85
2023/11/14 03:54:58;;;;;;;4.18;1.73;;;21.60;58.60;;;;;;6052509;23;92906;-85
2023/11/14 03:57:24;;;;;;;4.05;1.80;;;21.60;58.70;;;;;;6053955;23;92883;-85
2023/11/14 03:59:50;;;;;;;2.92;1.67;;;21.60;58.60;;;;;;6054741;23;92364;-85
2023/11/14 04:02:16;;;;;;;3.90;1.73;;;21.60;58.60;;;;;;6065643;23;92551;-85
2023/11/14 04:04:42;;;;;;;3.80;1.80;;;21.60;58.60;;;;;;6056170;23;91554;-85
2023/11/14 04:07:09;;;;;;;3.00;1.33;;;21.60;58.60;;;;;;6055810;23;95618;-84
2023/11/14 04:09:35;;;;;;;3.78;1.80;;;21.60;59.20;;;;;;6055740;23;94123;-85
2023/11/14 04:12:02;;;;;;;4.07;1.83;;;21.60;58.70;;;;;;6055944;23;93310;-85
2023/11/14 04:14:28;;;;;;;6.70;2.47;;;21.60;58.60;;;;;;6057533;23;93219;-84
2023/11/14 04:16:54;;;;;;;3.88;1.75;;;21.60;58.60;;;;;;6057469;23;93039;-85
2023/11/14 04:19:20;;;;;;;7.72;2.42;;;21.60;58.50;;;;;;6056402;23;95089;-85
2023/11/14 04:21:46;;;;;;;3.55;1.58;;;21.60;58.40;;;;;;6058976;23;91889;-85
2023/11/14 04:24:11;;;;;;;3.90;1.70;;;21.60;58.50;;;;;;6057463;23;93485;-85
2023/11/14 04:26:37;;;;;;;3.38;1.80;;;21.60;58.40;;;;;;6054062;23;94686;-86
2023/11/14 04:29:02;;;;;;;3.17;1.85;;;21.60;58.40;;;;;;6052690;23;94345;-85
2023/11/14 04:31:28;;;;;;;7.47;1.98;;;21.60;58.40;;;;;;6057470;23;92286;-85
2023/11/14 04:33:54;;;;;;;3.92;2.05;;;21.50;58.40;;;;;;6053285;23;92173;-85
2023/11/14 04:36:19;;;;;;;3.17;1.95;;;21.50;58.30;;;;;;6053749;23;94530;-86
2023/11/14 04:38:46;;;;;;;4.22;1.40;;;21.50;58.30;;;;;;6053384;23;96420;-85
2023/11/14 04:41:16;;;;;;;2.53;1.48;;;21.50;58.60;;;;;;6054050;23;92657;-85
2023/11/14 04:43:42;;;;;;;3.58;2.03;;;21.50;58.40;;;;;;6055469;23;92792;-86
2023/11/14 04:46:07;;;;;;;5.38;2.08;;;21.50;58.50;;;;;;6052261;23;92423;-87
2023/11/14 04:48:33;;;;;;;3.05;1.98;;;21.50;58.40;;;;;;6054212;23;92251;-86
2023/11/14 04:50:59;;;;;;;4.72;1.70;;;21.50;58.40;;;;;;6055063;23;93299;-86
2023/11/14 04:53:24;;;;;;;3.72;1.80;;;21.50;58.50;;;;;;6054866;23;91450;-88
2023/11/14 04:55:50;;;;;;;7.05;1.80;;;21.50;58.50;;;;;;6054502;23;93263;-86
2023/11/14 04:58:16;;;;;;;6.15;2.05;;;21.50;58.60;;;;;;6057367;23;93104;-85
2023/11/14 05:00:41;;;;;;;3.72;1.90;;;21.50;58.50;;;;;;6055484;23;93479;-84
2023/11/14 05:03:07;;;;;;;4.43;1.75;;;21.50;58.40;;;;;;6054261;23;92051;-86
2023/11/14 05:05:34;;;;;;;3.20;1.60;;;21.50;58.60;;;;;;6055064;23;93440;-87
2023/11/14 05:07:59;;;;;;;4.15;2.25;;;21.50;58.50;;;;;;6052929;23;95399;-86
2023/11/14 05:10:25;;;;;;;3.97;1.60;;;21.40;58.50;;;;;;6053307;23;92345;-87
2023/11/14 05:12:50;;;;;;;3.63;1.58;;;21.50;58.40;;;;;;6052206;23;93246;-86
2023/11/14 05:15:16;;;;;;;4.30;1.88;;;21.40;58.40;;;;;;6055562;23;93486;-86
2023/11/14 05:17:42;;;;;;;4.28;1.63;;;21.50;58.40;;;;;;6056926;23;92814;-88
2023/11/14 05:20:09;;;;;;;2.88;1.40;;;21.40;58.30;;;;;;6056823;23;92930;-87
2023/11/14 05:22:35;;;;;;;4.30;1.80;;;21.40;58.30;;;;;;6056793;23;92629;-86
2023/11/14 05:25:01;;;;;;;4.07;1.50;;;21.40;58.40;;;;;;6053437;23;96968;-86
2023/11/14 05:27:27;;;;;;;6.07;2.00;;;21.40;58.30;;;;;;6054594;23;93767;-85
2023/11/14 05:29:53;;;;;;;3.78;1.70;;;21.40;58.40;;;;;;6051999;23;92431;-87
2023/11/14 05:32:18;;;;;;;2.95;1.35;;;21.40;58.30;;;;;;6051294;23;92230;-87
2023/11/14 05:34:44;;;;;;;3.92;1.80;;;21.40;58.20;;;;;;6050852;23;95780;-87
2023/11/14 05:37:10;;;;;;;3.47;1.40;;;21.40;58.20;;;;;;6050981;23;95201;-87
2023/11/14 05:39:35;;;;;;;4.72;1.90;;;21.40;58.10;;;;;;6049873;23;92325;-88
2023/11/14 05:42:02;;;;;;;3.75;1.50;;;21.40;58.30;;;;;;6052680;23;92165;-88
2023/11/14 05:44:28;;;;;;;5.05;1.75;;;21.40;58.10;;;;;;6050522;23;96198;-87
2023/11/14 05:46:54;;;;;;;4.57;1.83;;;21.40;58.30;;;;;;6052453;23;92490;-85
2023/11/14 05:49:20;;;;;;;5.43;2.05;;;21.40;58.20;;;;;;6050896;23;93968;-86
2023/11/14 05:51:46;;;;;;;5.55;2.20;;;21.30;58.30;;;;;;6050994;23;92108;-86
2023/11/14 05:54:11;;;;;;;4.35;1.80;;;21.30;58.20;;;;;;6050855;23;95667;-86
2023/11/14 05:56:37;;;;;;;4.85;1.65;;;21.30;58.30;;;;;;6052550;23;93919;-85
2023/11/14 05:59:03;;;;;;;4.03;1.88;;;21.30;58.30;;;;;;6050871;23;92359;-86
2023/11/14 06:01:29;;;;;;;3.50;1.40;;;21.30;58.10;;;;;;6050837;23;92360;-86
2023/11/14 06:03:55;;;;;;;6.43;2.15;;;21.30;58.30;;;;;;6052198;23;93127;-87
2023/11/14 06:06:21;;;;;;;3.88;1.55;;;21.30;58.20;;;;;;6052264;23;92740;-87
2023/11/14 06:08:46;;;;;;;4.55;1.83;;;21.30;58.20;;;;;;6050994;23;91955;-87
2023/11/14 06:11:12;;;;;;;5.50;1.65;;;21.30;58.20;;;;;;6052573;23;94154;-86
2023/11/14 06:13:38;;;;;;;3.50;1.85;;;21.30;58.30;;;;;;6049989;23;96445;-87
2023/11/14 06:16:05;;;;;;;5.75;1.67;;;21.30;58.00;;;;;;6050678;23;96053;-87
2023/11/14 06:18:30;;;;;;;4.72;1.77;;;21.30;58.20;;;;;;6050287;23;94508;-87
2023/11/14 06:21:00;;;;;;;6.35;1.67;;;21.30;58.10;;;;;;6050629;23;93574;-87
2023/11/14 06:23:25;;;;;;;;;;;21.30;58.10;;;;;;6054792;23;94282;-87
2023/11/14 06:25:52;;;;;;;4.68;1.83;;;21.30;58.30;;;;;;6052284;23;93311;-86
2023/11/14 06:28:17;;;;;;;3.50;1.60;;;21.30;58.10;;;;;;6055554;23;92448;-87
2023/11/14 06:30:43;;;;;;;4.78;2.05;;;21.20;58.20;;;;;;6055362;23;91243;-85
2023/11/14 06:33:09;;;;;;;4.88;2.28;;;21.30;58.20;;;;;;6054529;23;92760;-85
2023/11/14 06:35:37;;;;;;;3.08;1.75;;;21.30;58.10;;;;;;6055252;23;92467;-86
2023/11/14 06:38:04;;;;;;;3.42;1.65;;;21.20;58.20;;;;;;6053033;23;93392;-86
2023/11/14 06:40:30;;;;;;;5.20;1.90;;;21.20;58.10;;;;;;6054338;23;92142;-86
2023/11/14 06:42:55;;;;;;;3.28;1.80;;;21.20;58.20;;;;;;6053423;23;93231;-86
2023/11/14 06:45:21;;;;;;;5.13;2.03;;;21.20;58.10;;;;;;6053439;23;92304;-87
2023/11/14 06:47:47;;;;;;;5.22;1.92;;;21.20;58.30;;;;;;6054667;23;99241;-85
2023/11/14 06:50:14;;;;;;;3.58;1.70;;;21.20;58.10;;;;;;6055041;23;92058;-86
2023/11/14 06:52:39;;;;;;;4.05;1.75;;;21.20;58.20;;;;;;6053679;23;96041;-86
2023/11/14 06:55:05;;;;;;;4.90;1.50;;;21.20;58.20;;;;;;6053437;23;94085;-86
2023/11/14 06:57:32;;;;;;;4.20;2.00;;;21.20;58.10;;;;;;6050555;23;92328;-85
2023/11/14 07:00:00;;;;;;;4.20;1.50;;;21.20;58.10;;;;;;6051736;23;92322;-86
2023/11/14 07:02:26;;;;;;;4.40;1.65;;;21.20;58.00;;;;;;6052519;23;94141;-86
2023/11/14 07:04:53;;;;;;;4.50;1.85;;;21.20;58.00;;;;;;6052910;23;93906;-87
2023/11/14 07:07:19;;;;;;;4.45;1.65;;;21.20;58.00;;;;;;6052446;23;92485;-84
2023/11/14 07:09:44;;;;;;;5.38;2.00;;;21.20;57.90;;;;;;6053668;23;92657;-87
2023/11/14 07:12:10;;;;;;;3.60;2.05;;;21.20;58.10;;;;;;6051032;23;95249;-86
2023/11/14 07:14:36;;;;;;;5.30;2.15;;;21.20;58.10;;;;;;6052984;23;92412;-86
2023/11/14 07:17:01;;;;;;;3.25;1.60;;;21.20;58.10;;;;;;6053221;23;92458;-85
2023/11/14 07:19:27;;;;;;;3.47;1.38;;;21.20;58.10;;;;;;6054392;23;91624;-86
2023/11/14 07:21:53;;;;;;;3.30;1.60;;;21.20;58.10;;;;;;6042852;23;92391;-86
2023/11/14 07:24:19;;;;;;;5.50;1.67;;;21.20;58.10;;;;;;6051372;23;94969;-85
2023/11/14 07:26:44;;;;;;;5.32;2.00;;;21.20;58.10;;;;;;6050313;23;93513;-87
2023/11/14 07:29:11;;;;;;;5.78;2.45;;;21.20;58.20;;;;;;6052337;23;92547;-86
2023/11/14 07:31:36;;;;;;;4.20;1.63;;;21.20;58.20;;;;;;6053974;23;92719;-85
2023/11/14 07:34:03;;;;;;;7.22;2.20;;;21.20;58.20;;;;;;6050549;23;97357;-85
2023/11/14 07:36:28;;;;;;;5.13;1.67;;;21.20;58.10;;;;;;6052599;23;92397;-85
2023/11/14 07:38:54;;;;;;;4.72;1.60;;;21.20;58.20;;;;;;6049189;23;92601;-84
2023/11/14 07:41:20;;;;;;;3.15;1.75;;;21.20;58.10;;;;;;6049363;23;95143;-86
2023/11/14 07:43:46;;;;;;;6.53;1.90;;;21.20;58.20;;;;;;6051082;23;95173;-87
2023/11/14 07:46:11;;;;;;;3.28;1.60;;;21.10;58.00;;;;;;6054342;23;92606;-87
2023/11/14 07:48:38;;;;;;;4.32;1.83;;;21.20;57.60;;;;;;6054358;23;92862;-87
2023/11/14 07:51:04;;;;;;;4.80;1.88;;;21.10;57.70;;;;;;6055337;23;94098;-89
2023/11/14 07:53:33;;;;;;;4.72;2.30;;;21.10;57.70;;;;;;6056666;23;95863;-90
2023/11/14 07:56:00;;;;;;;4.95;1.83;;;21.20;58.10;;;;;;6055823;23;92874;-87
2023/11/14 07:58:26;;;;;;;6.68;2.10;;;21.20;58.10;;;;;;6055422;23;92546;-88
2023/11/14 08:00:52;;;;;;;4.07;1.88;;;21.20;58.00;;;;;;6052557;23;95128;-90
2023/11/14 08:03:18;;;;;;;4.43;1.90;;;21.20;58.10;;;;;;6054338;23;95304;-83
2023/11/14 08:05:44;;;;;;;6.18;2.10;;;21.30;58.20;;;;;;6052414;23;92338;-82
2023/11/14 08:08:10;;;;;;;6.13;1.75;;;21.30;57.90;;;;;;6051110;23;91541;-86
2023/11/14 08:10:39;;;;;;;6.05;2.33;;;21.30;58.00;;;;;;6053448;23;95592;-88
2023/11/14 08:13:05;;;;;;;7.60;2.03;;;21.30;58.10;;;;;;6058097;23;96519;-84
2023/11/14 08:15:31;;;;;;;6.35;2.20;;;21.40;58.50;;;;;;6054062;23;93380;-88
2023/11/14 08:17:57;;;;;;;5.25;1.90;;;21.40;58.30;;;;;;6048164;23;94894;-88
2023/11/14 08:20:23;;;;;;;6.00;2.15;;;21.40;58.30;;;;;;6049956;23;93412;-87
2023/11/14 08:22:50;;;;;;;4.05;1.70;;;21.50;58.30;;;;;;6048502;23;94978;-86
2023/11/14 08:25:20;;;;;;;4.53;1.60;;;21.50;58.30;;;;;;6054277;23;92792;-88
2023/11/14 08:27:46;;;;;;;4.28;2.10;;;21.50;58.30;;;;;;6075619;23;93088;-90
2023/11/14 08:30:13;;;;;;;4.47;1.90;;;21.50;58.40;;;;;;6051163;23;95675;-91
2023/11/14 08:32:39;;;;;;;5.80;2.13;;;21.50;58.40;;;;;;6054015;23;94153;-92
2023/11/14 08:35:09;;;;;;;7.05;2.17;;;21.50;58.30;;;;;;6054089;23;92492;-91
2023/11/14 08:37:35;;;;;;;6.72;2.35;;;21.50;58.30;;;;;;6055449;23;93593;-90
2023/11/14 08:40:03;;;;;;;4.32;1.95;;;21.50;58.50;;;;;;6055889;23;94413;-89
2023/11/14 08:42:29;;;;;;;5.05;1.73;;;21.50;58.50;;;;;;6055025;23;95583;-89
2023/11/14 08:44:55;;;;;;;6.75;2.15;;;21.50;58.50;;;;;;6057112;23;92449;-90
2023/11/14 08:47:22;;;;;;;4.78;2.13;;;21.50;58.50;;;;;;6053809;23;92341;-87
2023/11/14 08:49:50;;;;;;;5.00;2.45;;;21.60;58.40;;;;;;6052551;23;95578;-89
2023/11/14 08:52:16;;;;;;;7.32;2.67;;;21.60;58.50;;;;;;6055549;23;92428;-88
2023/11/14 08:54:41;;;;;;;12.02;3.38;;;21.60;58.30;;;;;;6054225;23;92039;-87
2023/11/14 08:57:07;;;;;;;5.35;2.00;;;21.60;58.30;;;;;;6048409;23;91471;-88
2023/11/14 08:59:33;;;;;;;9.68;2.60;;;21.60;58.30;;;;;;6052547;23;92998;-90
2023/11/14 09:01:59;;;;;;;15.48;3.72;;;21.50;58.20;;;;;;6052735;23;92510;-90
2023/11/14 09:04:24;;;;;;;15.60;3.33;;;21.50;57.60;;;;;;6051577;23;93307;-87
2023/11/14 09:06:50;;;;;;;9.98;2.90;;;21.50;58.00;;;;;;6049267;23;92532;-86
2023/11/14 09:09:18;;;;;;;14.07;4.13;;;21.60;58.10;;;;;;6051969;23;93007;-85
2023/11/14 09:11:44;;;;;;;7.80;2.67;;;21.60;57.90;;;;;;6048417;23;95736;-89
2023/11/14 09:14:09;;;;;;;11.70;3.33;;;21.60;58.00;;;;;;6039378;23;92413;-88
2023/11/14 09:16:35;;;;;;;12.27;2.97;;;21.50;58.00;;;;;;6051074;23;92335;-87
2023/11/14 09:19:01;;;;;;;9.02;3.30;;;21.50;58.10;;;;;;6052399;23;95791;-89
2023/11/14 09:21:27;;;;;;;9.80;3.28;;;21.60;58.20;;;;;;6041984;23;95728;-90
2023/11/14 09:23:54;;;;;;;14.77;3.58;;;21.60;58.40;;;;;;6056183;23;92456;-91
2023/11/14 09:26:21;;;;;;;14.50;3.75;;;21.60;58.40;;;;;;6056454;23;92366;-89
2023/11/14 09:28:46;;;;;;;10.35;3.28;;;21.60;58.40;;;;;;6050236;23;96656;-88
2023/11/14 09:31:12;;;;;;;13.40;3.33;;;21.60;58.40;;;;;;6053570;23;96669;-86
2023/11/14 09:33:38;;;;;;;10.32;3.20;;;21.60;58.30;;;;;;6054092;23;92061;-87
2023/11/14 09:36:06;;;;;;;14.27;3.83;;;21.60;58.20;;;;;;6052066;23;92530;-86
2023/11/14 09:38:32;;;;;;;11.70;3.47;;;21.60;57.60;;;;;;6051037;23;93026;-86
2023/11/14 09:41:00;;;;;;;13.27;3.97;;;21.60;57.70;;;;;;6051032;23;92723;-85
2023/11/14 09:43:25;;;;;;;11.00;3.67;;;21.60;57.40;;;;;;6052841;23;92593;-85
2023/11/14 09:45:52;;;;;;;11.07;2.85;;;21.60;57.50;;;;;;6049516;23;92154;-86
2023/11/14 09:48:18;;;;;;;11.23;3.95;;;21.60;57.60;;;;;;6044582;23;95603;-85
2023/11/14 09:50:45;;;;;;;12.43;3.47;;;21.60;57.90;;;;;;6040168;23;94761;-83
2023/11/14 09:53:12;;;;;;;13.93;4.05;;;21.60;58.10;;;;;;6041036;23;93201;-83
2023/11/14 09:55:39;;;;;;;8.65;3.72;;;21.60;58.40;;;;;;6041348;23;92781;-83
2023/11/14 09:58:05;;;;;;;13.55;4.45;;;21.60;59.20;;;;;;6039593;23;95703;-84
2023/11/14 10:00:35;;;;;;;13.07;3.70;;;21.60;59.60;;;;;;6042646;23;93183;-84
2023/11/14 10:03:03;;;;;;;11.88;3.88;;;21.60;59.80;;;;;;6039386;23;92989;-84
2023/11/14 10:05:29;;;;;;;11.07;3.88;;;21.60;59.60;;;;;;6040392;23;92659;-84
2023/11/14 10:07:55;;;;;;;12.25;3.53;;;21.60;59.20;;;;;;6042882;23;95706;-84
2023/11/14 10:10:21;;;;;;;11.65;4.03;;;21.70;59.20;;;;;;6053521;23;91995;-85
2023/11/14 10:12:47;;;;;;;12.13;3.05;;;21.70;59.30;;;;;;6052372;23;93005;-85
2023/11/14 10:15:28;;;;;;;12.25;3.65;;;21.70;59.20;;;;;;6049444;23;92782;-85
2023/11/14 10:17:55;;;;;;;11.32;3.30;;;21.70;59.40;;;;;;6047604;23;96561;-86
2023/11/14 10:20:21;;;;;;;10.40;3.40;;;21.70;59.60;;;;;;6053301;23;93681;-86
2023/11/14 10:23:10;;;;;;;11.45;3.58;;;21.80;60.70;;;;;;6038365;23;92388;-88
2023/11/14 10:25:39;;;;;;;8.35;3.17;;;21.80;60.30;;;;;;6039088;23;93944;-87
2023/11/14 10:28:06;;;;;;;10.32;3.70;;;21.80;60.70;;;;;;6054325;23;92227;-88
2023/11/14 10:30:56;;;;;;;13.90;4.03;;;21.80;60.50;;;;;;6051115;23;92557;-86
2023/11/14 10:33:26;;;;;;;12.63;4.10;;;21.90;60.40;;;;;;6048263;23;92302;-84
2023/11/14 10:36:00;;;;;;;12.02;4.25;;;21.90;60.40;;;;;;6047569;23;91751;-86
2023/11/14 10:38:26;;;;;;;10.95;3.95;;;21.90;60.30;;;;;;6050154;23;93189;-86
2023/11/14 10:40:53;;;;;;;14.68;4.65;;;21.90;60.40;;;;;;6052109;23;93144;-84
2023/11/14 10:43:26;;;;;;;13.88;4.53;;;21.90;60.40;;;;;;6049629;23;93068;-86
2023/11/14 10:45:52;;;;;;;11.77;4.00;;;21.90;60.70;;;;;;6046896;23;92790;-86
2023/11/14 10:48:25;;;;;;;9.93;3.70;;;21.90;60.60;;;;;;6045983;23;96093;-85
2023/11/14 10:50:52;;;;;;;11.82;3.95;;;21.90;60.60;;;;;;6046946;23;95166;-86
2023/11/14 10:53:18;;;;;;;18.27;4.00;;;21.90;60.50;;;;;;6048140;23;92875;-85
2023/11/14 10:55:49;;;;;;;12.45;3.97;;;21.90;60.60;;;;;;6047501;23;92387;-84
2023/11/14 10:58:17;;;;;;;12.55;4.47;;;21.90;60.80;;;;;;6052338;23;93294;-88
2023/11/14 11:00:44;;;;;;;13.25;3.85;;;21.90;61.00;;;;;;6052663;23;92630;-88
2023/11/14 11:03:09;;;;;;;13.73;4.05;;;21.90;60.90;;;;;;6049932;23;92485;-88
2023/11/14 11:05:35;;;;;;;9.02;3.55;;;21.90;60.90;;;;;;6052351;23;92401;-88
2023/11/14 11:08:04;;;;;;;10.70;3.78;;;21.90;60.80;;;;;;6057434;23;95928;-87
2023/11/14 11:10:32;;;;;;;10.50;3.92;;;21.90;60.90;;;;;;6083825;23;96013;-87
2023/11/14 11:13:03;;;;;;;6.70;2.50;;;21.90;60.70;;;;;;6049351;23;93143;-87
2023/11/14 11:15:31;;;;;;;9.63;3.33;;;22.00;60.50;;;;;;6047830;23;93225;-87
2023/11/14 11:18:00;;;;;;;8.45;3.33;;;22.00;60.70;;;;;;6047671;23;93029;-86
2023/11/14 11:20:27;;;;;;;6.38;2.72;;;22.00;60.80;;;;;;6052007;23;92936;-89
2023/11/14 11:23:12;;;;;;;10.32;4.10;;;22.10;61.40;;;;;;6044958;23;92856;-88
2023/11/14 11:26:07;;;;;;;7.72;2.90;;;22.10;61.40;;;;;;6048412;23;92155;-87
2023/11/14 11:28:33;;;;;;;10.23;3.17;;;22.10;61.10;;;;;;6047536;23;92394;-85
2023/11/14 11:31:08;;;;;;;11.35;3.15;;;22.10;60.90;;;;;;6042976;23;95342;-86
2023/11/14 11:33:37;;;;;;;6.68;2.97;;;22.20;60.70;;;;;;6046754;23;93238;-85
2023/11/14 11:36:24;;;;;;;12.45;3.72;;;22.10;60.80;;;;;;6043824;23;92762;-88
2023/11/14 11:39:01;;;;;;;6.13;2.95;;;22.20;60.60;;;;;;6047828;23;92303;-86
2023/11/14 11:41:32;;;;;;;11.32;4.22;;;22.20;60.40;;;;;;6045840;23;95429;-85
2023/11/14 11:44:05;;;;;;;10.65;4.13;;;22.20;61.00;;;;;;6045827;23;92830;-85
2023/11/14 11:46:38;;;;;;;9.68;3.78;;;22.20;61.10;;;;;;6046869;23;92456;-86
2023/11/14 11:49:10;;;;;;;8.55;3.35;;;22.20;60.90;;;;;;6049657;23;97760;-89
2023/11/14 11:51:43;;;;;;;7.13;3.22;;;22.20;61.10;;;;;;6050422;23;95277;-89
2023/11/14 11:54:27;;;;;;;8.95;3.42;;;22.20;61.20;;;;;;6051024;23;92471;-92
2023/11/14 11:57:06;;;;;;;7.88;3.22;;;22.20;61.00;;;;;;6050483;23;92776;-88
2023/11/14 11:59:40;;;;;;;8.48;3.28;;;22.20;61.10;;;;;;6049172;23;96833;-89
2023/11/14 12:02:14;;;;;;;10.45;3.42;;;22.30;61.20;;;;;;6051515;23;96246;-88
2023/11/14 12:04:43;;;;;;;8.15;3.28;;;22.20;61.20;;;;;;6050456;23;92008;-87
2023/11/14 12:07:11;;;;;;;10.13;3.60;;;22.20;60.80;;;;;;6051016;23;92896;-87
2023/11/14 12:09:39;;;;;;;11.18;3.65;;;22.20;61.00;;;;;;6050451;23;93439;-87
2023/11/14 12:12:05;;;;;;;8.77;3.15;;;22.30;61.10;;;;;;6049417;23;92684;-86
2023/11/14 12:14:30;;;;;;;7.43;3.38;;;22.20;60.80;;;;;;6049813;23;92657;-85
2023/11/14 12:16:57;;;;;;;6.38;2.97;;;22.30;61.10;;;;;;6046522;23;91991;-86
2023/11/14 12:19:25;;;;;;;10.23;3.08;;;22.30;60.70;;;;;;6048486;23;93109;-87
2023/11/14 12:21:52;;;;;;;6.95;3.10;;;22.30;60.50;;;;;;6047267;23;95551;-86
2023/11/14 12:24:18;;;;;;;6.35;2.47;;;22.30;60.20;;;;;;6054646;23;93559;-85
2023/11/14 12:26:44;;;;;;;6.63;2.83;;;22.30;60.20;;;;;;6046526;23;92998;-86
2023/11/14 12:29:11;;;;;;;7.88;3.05;;;22.30;60.50;;;;;;6044001;23;95716;-87
2023/11/14 12:31:37;;;;;;;7.45;2.42;;;22.40;60.30;;;;;;6048362;23;95043;-86
2023/11/14 12:34:04;;;;;;;9.63;2.88;;;22.40;60.30;;;;;;6021585;23;92645;-86
2023/11/14 12:36:31;;;;;;;8.07;3.30;;;22.40;60.50;;;;;;6022591;23;92840;-87
2023/11/14 12:39:12;;;;;;;11.27;3.15;;;22.40;60.70;;;;;;6046285;23;95534;-85
2023/11/14 12:41:43;;;;;;;9.55;2.92;;;22.40;60.60;;;;;;6046693;23;93929;-87
2023/11/14 12:44:10;;;;;;;9.75;2.72;;;22.40;60.70;;;;;;6050746;23;92696;-86